KMMU/MMU METAR and TAF weather

Enter ICAO airport designator
Station Type Date Time Source
KMMU METAR 2020/09/27 15:45 UTC NOAA

KMMU 271545Z 00000KT 10SM OVC023 24/23 A3001


Station Type Date Time Source
KMMU Decoded METAR 2020/09/27 15:45 UTC NOAA

Morristown Municipal, NJ, United States (KMMU) 40-48N 074-25W
Sep 27, 2020 - 11:45 AM EDT / 2020.09.27 1545 UTC
Wind: Calm:0
Visibility: 10 mile(s):0
Sky conditions: overcast
Temperature: 75 F (24 C)
Dew Point: 73 F (23 C)
Relative Humidity: 94%
Pressure (altimeter): 30.01 in. Hg (1016 hPa)
ob: KMMU 271545Z 00000KT 10SM OVC023 24/23 A3001
cycle: 16

Station Type Date Time Source
KMMU TAF UTC NOAA

Error!

Example: see airport list